Latest Coastal Weather Observations for Cape Otway

IDT60701

Issued at 2:35 am EST Friday 3 October 2014 (issued every 10 minutes, with the page automatically refreshed every 10 minutes)

About coastal observations | Map of coastal stations | Coastal observations for TAS | Marine services | Other Formats
Station Details ID: 090015 Name: CAPE OTWAY LIGHTHOUSE Lat: -38.86 Lon: 143.51 Height: 82.0 m
Data from the previous 72 hours. | See also: Recent months at Cape Otway
Date/Time
EST
Temp

°C
Wind Pressure Rain
since 9am
mm
Weather Cloud Vis
km
Sea
Height
m
Swell
Dir
 
Speed
knots
Gust
knots
hPa Trend Height
m
Period
s
Dir
03/02:30am 10.7 SSW 7 10 1023.2 - 0.4 - - - - - - -
03/02:00am 10.6 SSW 7 10 1023.5 - 0.4 - - - - - - -
03/01:30am 10.9 WSW 10 14 1023.9 - 0.4 - - - - - - -
03/01:00am 11.3 SSW 11 14 1024.0 - 0.2 - - - - - - -
03/12:30am 11.3 SW 10 13 1024.2 - 0.2 - - - - - - -
03/12:00am 11.4 SW 8 11 1024.3 - 0.0 - - - - - - -
 
Date/Time
EST
Temp

°C
Wind Pressure Rain
since 9am
mm
Weather Cloud Vis
km
Sea
Height
m
Swell
Dir
 
Speed
knots
Gust
knots
hPa Trend Height
m
Period
s
Dir
02/11:30pm 11.7 WSW 8 12 1024.3 - 0.0 - - - - - - -
02/11:00pm 11.7 SW 11 15 1024.3 - 0.0 - - - - - - -
02/10:30pm 11.7 SW 9 14 1024.4 - 0.0 - - - - - - -
02/10:00pm 11.5 SW 12 15 1024.4 - 0.0 - - - - - - -
02/09:30pm 11.9 SW 12 15 1024.3 - 0.0 - - - - - - -
02/09:00pm 11.8 WSW 11 15 1024.5 - 0.0 - - - - - - -
02/08:30pm 11.8 SW 16 21 1024.6 - 0.0 - - - - - - -
02/08:00pm 11.9 WSW 12 16 1024.6 - 0.0 - - - - - - -
02/07:30pm 12.1 WSW 12 16 1024.4 - 0.0 - - - - - - -
02/07:00pm 12.3 W 11 19 1024.0 - 0.0 - - - - - - -
02/06:30pm 12.1 WSW 11 15 1024.0 - 0.0 - - - - - - -
02/06:00pm 11.9 WSW 13 17 1024.0 - 0.0 - - - - - - -
02/05:30pm 11.8 WSW 13 20 1023.8 - 0.0 - - - - - - -
02/05:00pm 11.7 W 13 17 1023.5 - 0.0 - - - - - - -
02/04:30pm 12.4 WSW 14 19 1023.4 - 0.0 - - - - - - -
02/04:11pm 12.6 SW 20 25 1023.3 - 0.0 - - - - - - -
02/04:08pm 12.7 SW 20 24 1023.3 - 0.0 - - - - - - -
02/04:00pm 13.3 W 14 20 1023.4 - 0.0 - - - - - - -
02/03:30pm 13.1 W 15 21 1023.3 - 0.0 - - - - - - -
02/03:00pm 12.5 W 17 24 1023.5 R 0.0 Distant precip. Mostly cloudy 20 3 4.0 - SW
02/02:46pm 13.1 W 15 25 1023.4 - 0.0 - - - - - - -
02/02:44pm 13.1 W 15 25 1023.4 - 0.0 - - - - - - -
02/02:30pm 12.7 WSW 17 24 1023.4 - 0.0 - - - - - - -
02/02:00pm 13.7 W 17 23 1023.5 - 0.0 - - - - - - -
02/01:30pm 12.7 W 18 25 1023.6 - 0.0 - - - - - - -
02/01:00pm 11.9 W 19 26 1023.8 - 0.0 - - - - - - -
02/12:30pm 13.5 W 18 24 1023.8 - 0.0 - - - - - - -
02/12:03pm 12.6 W 17 27 1023.8 - 0.0 - - - - - - -
02/12:00pm 12.6 W 17 23 1023.9 - 0.0 - - - - - - -
02/11:30am 12.4 W 19 27 1024.0 - 0.0 - - - - - - -
02/11:22am 12.8 W 18 28 1023.9 - 0.0 - - - - - - -
02/11:20am 12.8 W 18 28 1023.9 - 0.0 - - - - - - -
02/11:00am 12.7 W 15 23 1024.1 - 0.0 - - - - - - -
02/10:31am 12.6 W 19 29 1024.1 - 0.0 - - - - - - -
02/10:30am 12.7 W 19 29 1024.1 - 0.0 - - - - - - -
02/10:27am 12.6 W 19 29 1024.0 - 0.0 - - - - - - -
02/10:25am 12.6 W 19 29 1024.0 - 0.0 - - - - - - -
02/10:00am 13.0 W 17 23 1023.8 - 0.0 - - - - - - -
02/09:30am 13.0 W 18 24 1023.8 - 0.0 - - - - - - -
02/09:00am 12.6 W 17 22 1023.5 S 0.2 Distant precip. Mostly cloudy 20 3 4.0 - SW
02/08:38am 12.5 W 16 26 1023.6 - 0.2 - - - - - - -
02/08:36am 12.5 W 16 26 1023.6 - 0.2 - - - - - - -
02/08:30am 12.3 W 18 24 1023.6 - 0.2 - - - - - - -
02/08:04am 12.1 WSW 21 31 1023.4 - 0.2 - - - - - - -
02/08:00am 12.2 WSW 22 31 1023.4 - 0.2 - - - - - - -
02/07:55am 12.9 WSW 18 29 1023.2 - 0.2 - - - - - - -
02/07:53am 12.9 WSW 18 29 1023.2 - 0.2 - - - - - - -
02/07:30am 12.8 W 20 28 1023.0 - 0.2 - - - - - - -
02/07:00am 12.6 W 20 28 1022.8 - 0.2 - - - - - - -
02/06:30am 12.6 W 19 26 1022.5 - 0.2 - - - - - - -
02/06:00am 12.3 W 20 27 1022.4 - 0.2 - - - - - - -
02/05:30am 12.1 W 18 25 1022.2 - 0.2 - - - - - - -
02/05:00am 12.6 W 21 28 1022.1 - 0.2 - - - - - - -
02/04:30am 12.8 W 18 29 1022.0 - 0.2 - - - - - - -
02/04:28am 12.8 W 17 29 1021.9 - 0.2 - - - - - - -
02/04:26am 12.8 W 17 29 1021.9 - 0.2 - - - - - - -
02/04:00am 12.6 W 21 29 1022.0 - 0.2 - - - - - - -
02/03:47am 12.7 W 21 31 1022.1 - 0.2 - - - - - - -
02/03:45am 12.7 W 21 31 1022.1 - 0.2 - - - - - - -
02/03:30am 12.7 W 20 29 1022.2 - 0.2 - - - - - - -
02/03:00am 12.4 W 21 28 1022.3 - 0.2 - - - - - - -
02/02:30am 12.3 W 20 30 1022.5 - 0.2 - - - - - - -
02/02:28am 12.3 W 19 30 1022.5 - 0.2 - - - - - - -
02/02:00am 12.5 W 21 29 1022.8 - 0.2 - - - - - - -
02/01:30am 12.5 W 21 30 1023.0 - 0.2 - - - - - - -
02/01:16am 12.3 W 20 30 1023.0 - 0.2 - - - - - - -
02/01:00am 12.2 W 21 30 1023.2 - 0.2 - - - - - - -
02/12:58am 12.4 W 20 30 1023.2 - 0.2 - - - - - - -
02/12:30am 12.0 W 21 28 1023.4 - 0.2 - - - - - - -
02/12:00am 11.5 W 21 29 1023.7 - 0.2 - - - - - - -
 
Date/Time
EST
Temp

°C
Wind Pressure Rain
since 9am
mm
Weather Cloud Vis
km
Sea
Height
m
Swell
Dir
 
Speed
knots
Gust
knots
hPa Trend Height
m
Period
s
Dir
01/11:34pm 12.1 W 17 27 1023.8 - 0.2 - - - - - - -
01/11:32pm 12.1 W 17 27 1023.8 - 0.2 - - - - - - -
01/11:30pm 12.1 W 18 27 1023.8 - 0.2 - - - - - - -
01/11:18pm 12.0 W 18 28 1023.9 - 0.2 - - - - - - -
01/11:15pm 12.1 W 18 28 1023.9 - 0.2 - - - - - - -
01/11:00pm 12.1 W 18 24 1024.0 - 0.2 - - - - - - -
01/10:30pm 11.9 W 18 28 1024.2 - 0.2 - - - - - - -
01/10:23pm 12.1 W 17 28 1024.2 - 0.2 - - - - - - -
01/10:21pm 12.1 W 17 28 1024.2 - 0.2 - - - - - - -
01/10:00pm 12.0 W 17 24 1024.3 - 0.2 - - - - - - -
01/09:35pm 11.6 W 17 27 1024.5 - 0.2 - - - - - - -
01/09:33pm 11.6 W 17 27 1024.5 - 0.2 - - - - - - -
01/09:30pm 11.6 W 18 27 1024.5 - 0.2 - - - - - - -
01/09:03pm 12.2 W 16 26 1024.5 - 0.2 - - - - - - -
01/09:00pm 12.3 W 16 25 1024.6 - 0.2 - - - - - - -
01/08:30pm 12.1 W 18 26 1024.6 - 0.2 - - - - - - -
01/08:25pm 12.4 W 16 26 1024.6 - 0.2 - - - - - - -
01/08:23pm 12.4 W 16 26 1024.6 - 0.2 - - - - - - -
01/08:00pm 12.1 W 17 22 1024.5 - 0.2 - - - - - - -
01/07:30pm 12.0 W 16 21 1024.5 - 0.2 - - - - - - -
01/07:00pm 12.0 W 16 21 1024.3 - 0.2 - - - - - - -
01/06:30pm 11.8 W 17 23 1024.0 - 0.2 - - - - - - -
01/06:00pm 12.0 W 18 24 1024.1 - 0.2 - - - - - - -
01/05:30pm 12.0 W 17 23 1024.0 - 0.2 - - - - - - -
01/05:00pm 12.1 W 18 24 1023.7 - 0.2 - - - - - - -
01/04:30pm 13.1 W 18 25 1023.9 - 0.2 - - - - - - -
01/04:00pm 12.9 W 16 22 1023.9 - 0.2 - - - - - - -
01/03:30pm 13.1 W 18 24 1023.8 - 0.2 - - - - - - -
01/03:00pm 13.0 W 16 22 1023.8 R 0.2 Fine Mostly cloudy 20 3 4.0 - SW
01/02:30pm 12.5 W 17 23 1023.8 - 0.2 - - - - - - -
01/02:00pm 12.8 WSW 19 27 1023.9 - 0.2 - - - - - - -
01/01:30pm 13.2 WSW 17 25 1023.9 - 0.2 - - - - - - -
01/01:00pm 12.7 WSW 17 23 1024.0 - 0.2 - - - - - - -
01/12:30pm 12.1 WSW 18 26 1023.7 - 0.2 - - - - - - -
01/12:00pm 12.2 WSW 17 25 1024.4 - 0.2 - - - - - - -
01/11:30am 11.6 WSW 15 22 1024.0 - 0.2 - - - - - - -
01/11:08am 12.2 WSW 16 29 1023.6 - 0.0 - - - - - - -
01/11:06am 12.2 WSW 16 29 1023.6 - 0.0 - - - - - - -
01/11:00am 12.6 WSW 16 23 1023.7 - 0.0 - - - - - - -
01/10:30am 12.2 SW 20 25 1023.6 - 0.0 - - - - - - -
01/10:04am 12.1 WSW 18 28 1023.3 - 0.0 - - - - - - -
01/10:02am 12.1 WSW 18 28 1023.3 - 0.0 - - - - - - -
01/10:00am 12.1 WSW 17 23 1023.3 - 0.0 - - - - - - -
01/09:30am 11.5 WSW 11 17 1023.2 - 0.0 - - - - - - -
01/09:14am 10.4 WSW 15 25 1023.0 - 0.0 - - - - - - -
01/09:00am 11.0 WSW 21 29 1022.6 R 15.0 Distant precip. Mostly cloudy 20 3 4.0 - SW
01/08:33am 10.9 WSW 19 29 1022.0 - - - - - - - - -
01/08:31am 10.9 WSW 19 29 1022.0 - 15.0 - - - - - - -
01/08:30am 11.2 SW 20 29 1022.0 - 15.0 - - - - - - -
01/08:10am 11.5 WSW 17 28 1021.5 - - - - - - - - -
01/08:08am 11.5 WSW 18 28 1021.5 - 15.0 - - - - - - -
01/08:00am 11.6 SW 19 26 1021.4 - 15.0 - - - - - - -
01/07:30am 11.0 SW 20 25 1021.0 - 15.0 - - - - - - -
01/07:00am 10.7 SW 19 27 1020.6 - 15.0 - - - - - - -
01/06:52am 10.6 WSW 18 25 1020.4 - - - - - - - - -
01/06:35am 9.9 SSW 18 36 1020.3 - 15.0 - - - - - - -
01/06:33am 10.1 SSW 26 36 1020.2 - - - - - - - - -
01/06:30am 10.4 SW 24 36 1020.1 - 15.0 - - - - - - -
01/06:13am 10.9 WSW 18 28 1019.5 - - - - - - - - -
01/06:11am 10.9 WSW 18 28 1019.5 - 15.0 - - - - - - -
01/06:00am 10.5 WSW 20 26 1019.4 - 15.0 - - - - - - -
01/05:42am 10.4 SW 22 33 1019.0 - - - - - - - - -
01/05:40am 10.4 SW 22 33 1019.0 - 15.0 - - - - - - -
01/05:30am 10.6 SW 23 30 1018.9 - 15.0 - - - - - - -
01/05:10am 10.1 WSW 20 35 1018.6 - - - - - - - - -
01/05:08am 10.1 WSW 20 35 1018.6 - 14.8 - - - - - - -
01/05:00am 9.8 WSW 22 30 1018.5 - 14.8 - - - - - - -
01/04:36am 9.9 W 20 36 1018.3 - - - - - - - - -
01/04:34am 9.9 W 20 36 1018.3 - 14.2 - - - - - - -
01/04:30am 10.0 W 20 28 1018.1 - 14.0 - - - - - - -
01/04:24am 10.1 W 23 32 1018.1 - 14.0 - - - - - - -
01/04:22am 10.5 W 21 27 1018.0 - - - - - - - - -
01/04:05am 10.7 SW 24 34 1017.6 - - - - - - - - -
01/04:03am 10.7 SW 24 34 1017.6 - 14.0 - - - - - - -
01/04:00am 10.7 SW 25 34 1017.6 - 14.0 - - - - - - -
01/03:30am 10.8 SW 25 33 1017.2 - 14.0 - - - - - - -
01/03:00am 10.6 WSW 25 36 1017.0 - 14.0 - - - - - - -
01/02:43am 10.2 WSW 24 34 1016.8 - - - - - - - - -
01/02:40am 10.2 WSW 24 34 1016.8 - 14.0 - - - - - - -
01/02:30am 10.0 WSW 25 33 1016.6 - 14.0 - - - - - - -
01/02:08am 10.7 WSW 24 34 1016.3 - - - - - - - - -
01/02:06am 10.7 WSW 24 34 1016.3 - 14.0 - - - - - - -
01/02:00am 10.6 WSW 25 34 1016.1 - 14.0 - - - - - - -
01/01:41am 10.3 WSW 23 34 1016.2 - - - - - - - - -
01/01:39am 10.3 WSW 23 34 1016.2 - 14.0 - - - - - - -
01/01:30am 10.0 WSW 26 35 1016.0 - 14.0 - - - - - - -
01/01:03am 10.3 WSW 23 33 1015.5 - 14.0 - - - - - - -
01/01:00am 10.5 WSW 24 33 1015.5 - 14.0 - - - - - - -
01/12:30am 10.5 SW 29 40 1014.9 - 14.0 - - - - - - -
01/12:01am 10.4 WSW 26 38 1014.4 - - - - - - - - -
01/12:00am 10.4 WSW 26 38 1014.5 - 14.0 - - - - - - -
 
Date/Time
EST
Temp

°C
Wind Pressure Rain
since 9am
mm
Weather Cloud Vis
km
Sea
Height
m
Swell
Dir
 
Speed
knots
Gust
knots
hPa Trend Height
m
Period
s
Dir
30/11:30pm 9.4 SW 27 37 1014.1 - 14.0 - - - - - - -
30/11:00pm 9.3 WSW 26 42 1013.6 - 14.0 - - - - - - -
30/10:30pm 10.4 WSW 28 39 1013.0 - 14.0 - - - - - - -
30/10:01pm 10.1 WSW 29 49 1012.2 - - - - - - - - -
30/10:00pm 10.0 WSW 29 49 1012.1 - 14.0 - - - - - - -
30/09:30pm 8.9 WSW 31 48 1011.8 - 14.0 - - - - - - -
30/09:22pm 9.5 WSW 31 54 1011.3 - - - - - - - - -
30/09:20pm 9.5 WSW 31 54 1011.3 - 13.4 - - - - - - -
30/09:08pm 9.4 WSW 27 37 1011.0 - - - - - - - - -
30/09:06pm 9.3 WSW 29 35 1011.1 - - - - - - - - -
30/09:00pm 8.3 W 26 41 1011.1 - 13.2 - - - - - - -
30/08:56pm 7.8 W 28 39 1011.1 - - - - - - - - -
30/08:53pm 9.0 WSW 23 33 1011.3 - - - - - - - - -
30/08:51pm 9.0 WSW 23 34 1011.3 - 12.4 - - - - - - -
30/08:47pm 8.3 SW 25 32 1011.4 - - - - - - - - -
30/08:45pm 8.3 SW 25 34 1011.4 - 12.4 - - - - - - -
30/08:30pm 10.0 W 27 38 1011.0 - 12.4 - - - - - - -
30/08:13pm 8.8 W 29 39 1010.6 - - - - - - - - -
30/08:11pm 8.8 W 28 55 1010.6 - 12.4 - - - - - - -
30/08:09pm 8.6 WSW 28 55 1010.6 - 12.4 - - - - - - -
30/08:00pm 8.8 WSW 39 50 1010.5 - 12.4 - - - - - - -
30/07:52pm 9.1 WSW 41 52 1010.5 - - - - - - - - -
30/07:51pm 9.8 W 30 48 1010.6 - - - - - - - - -
30/07:50pm 9.1 WSW 41 52 1010.5 - 12.4 - - - - - - -
30/07:30pm 10.8 W 27 38 1009.9 - 12.4 - - - - - - -
30/07:00pm 10.4 W 24 35 1009.4 - 12.4 - - - - - - -
30/06:49pm 9.0 W 20 31 1009.5 - - - - - - - - -
30/06:47pm 9.0 W 20 31 1009.5 - 12.4 - - - - - - -
30/06:41pm 8.5 W 18 26 1009.4 - - - - - - - - -
30/06:39pm 8.5 W 18 43 1009.4 - 12.4 - - - - - - -
30/06:30pm 8.9 WSW 30 43 1009.7 - 12.2 - - - - - - -
30/06:02pm 10.2 W 31 50 1008.1 - - - - - - - - -
30/06:00pm 11.3 W 30 50 1008.5 - 11.6 - - - - - - -
30/05:30pm 11.0 W 28 41 1008.0 - 11.6 - - - - - - -
30/05:00pm 11.4 W 29 39 1007.2 - 11.6 - - - - - - -
30/04:42pm 11.4 W 26 41 1006.7 - - - - - - - - -
30/04:40pm 11.4 W 26 41 1006.7 - 11.6 - - - - - - -
30/04:30pm 11.5 W 27 34 1006.8 - 11.6 - - - - - - -
30/04:17pm 11.1 - - - 1006.4 - - - - - - - - -
30/04:00pm 11.6 W 25 38 1006.2 - 11.6 - - - - - - -
30/03:30pm 9.5 W 29 49 1005.4 - 11.6 - - - - - - -
30/03:24pm 10.6 W 28 49 1005.3 - 11.6 - - - - - - -
30/03:00pm 11.2 W 27 39 1005.2 - 11.0 Distant precip. Cloudy 10 5 3.0 10 SW
30/02:30pm 9.6 W 30 45 1004.7 - 11.0 - - - - - - -
30/02:00pm 9.9 WSW 32 46 1004.3 - 8.8 - - - - - - -
30/01:50pm 10.8 WSW 29 40 1003.8 - 8.4 - - - - - - -
30/01:49pm 11.1 W 29 40 1003.4 - 8.0 - - - - - - -
30/01:40pm 12.0 WNW 25 44 1002.5 - 7.4 - - - - - - -
30/01:39pm 12.3 WNW 24 34 1002.4 - 7.4 - - - - - - -
30/01:38pm 12.0 WNW 25 44 1002.5 - 7.4 - - - - - - -
30/01:37pm 12.3 WNW 24 34 1002.4 - 7.4 - - - - - - -
30/01:30pm 12.1 WNW 27 36 1002.3 - 7.4 - - - - - - -
30/01:00pm 11.4 WNW 25 38 1002.3 - 7.2 - - - - - - -
30/12:30pm 12.3 WNW 26 38 1002.2 - 4.8 - - - - - - -
30/12:00pm 12.3 W 22 38 1002.3 - 2.0 - - - - - - -
30/11:56am 12.6 W 21 31 1002.3 - 0.8 - - - - - - -
30/11:54am 14.9 W 21 31 1002.2 - 0.0 - - - - - - -
30/11:52am 14.9 W 22 31 1002.2 - 0.0 - - - - - - -
30/11:30am 16.1 NW 17 28 1002.2 - 0.0 - - - - - - -
30/11:00am 16.9 NW 21 35 1002.7 - 0.0 - - - - - - -
30/10:30am 16.7 NW 18 28 1002.9 - 0.0 - - - - - - -
30/10:07am 17.5 NW 17 27 1003.4 - 0.0 - - - - - - -
30/10:00am 17.3 NW 17 26 1003.4 - 0.0 - - - - - - -
30/09:30am 16.7 NW 19 30 1003.8 - 0.0 - - - - - - -
30/09:00am 15.9 NW 16 28 1004.3 F 0.0 Fine Partly cloudy 20 2 4.0 - SW
30/08:30am 15.8 NNW 17 28 1004.6 - 0.0 - - - - - - -
30/08:00am 15.4 NW 18 30 1005.2 - 0.0 - - - - - - -
30/07:30am 14.7 NW 17 27 1005.4 - 0.0 - - - - - - -
30/07:00am 13.8 NW 17 28 1005.6 - 0.0 - - - - - - -
30/06:30am 13.9 NNW 19 31 1005.6 - 0.0 - - - - - - -
30/06:00am 13.3 NW 16 27 1006.3 - 0.0 - - - - - - -
30/05:30am 12.9 NW 17 29 1006.3 - 0.0 - - - - - - -
30/05:17am 12.6 NW 15 26 1006.4 - 0.0 - - - - - - -
30/05:15am 12.6 NW 15 26 1006.4 - 0.0 - - - - - - -
30/05:00am 12.6 NW 13 23 1006.6 - 0.0 - - - - - - -
30/04:38am 12.6 NW 15 25 1006.7 - 0.0 - - - - - - -
30/04:36am 12.6 NW 15 25 1006.7 - 0.0 - - - - - - -
30/04:30am 12.7 NW 15 24 1006.8 - 0.0 - - - - - - -
30/04:00am 12.5 NW 14 22 1007.1 - 0.0 - - - - - - -
30/03:30am 12.2 NNW 12 18 1007.4 - 0.0 - - - - - - -
30/03:00am 12.4 NW 11 18 1007.7 - 0.0 - - - - - - -

Other Formats:

Comma delimited format used in spreadsheet applications
http://www.bom.gov.au/fwo/IDT60701/IDT60701.94842.axf

JavaScript Object Notation format (JSON) in row-major order
http://www.bom.gov.au/fwo/IDT60701/IDT60701.94842.json